createdAt,value
2019-02-11T00:00:40.258Z,6.20
2019-02-11T00:03:12.298Z,6.10
2019-02-11T00:05:42.656Z,6.10
2019-02-11T00:08:12.996Z,6.00
2019-02-11T00:10:43.223Z,6.00
2019-02-11T00:13:13.499Z,5.90
2019-02-11T00:15:43.847Z,5.90
2019-02-11T00:18:14.128Z,5.80
2019-02-11T00:20:44.461Z,5.80
2019-02-11T00:23:14.749Z,5.80
2019-02-11T00:25:44.954Z,5.90
2019-02-11T00:28:15.275Z,5.80
2019-02-11T00:30:46.033Z,5.80
2019-02-11T00:33:16.386Z,5.70
2019-02-11T00:35:46.589Z,5.80
2019-02-11T00:38:16.866Z,5.80
2019-02-11T00:40:47.184Z,5.70
2019-02-11T00:43:19.178Z,5.70
2019-02-11T00:45:49.551Z,5.70
2019-02-11T00:48:19.843Z,5.70
2019-02-11T00:50:50.227Z,5.70
2019-02-11T00:53:20.654Z,5.60
2019-02-11T00:55:51.022Z,5.70
2019-02-11T00:58:21.407Z,5.60
2019-02-11T01:00:51.806Z,5.50
2019-02-11T01:03:23.011Z,5.70
2019-02-11T01:05:53.397Z,5.70
2019-02-11T01:08:23.825Z,5.60
2019-02-11T01:10:54.087Z,5.60
2019-02-11T01:13:27.742Z,5.60
2019-02-11T01:15:56.728Z,5.50
2019-02-11T01:18:27.050Z,5.50
2019-02-11T01:20:57.395Z,5.60
2019-02-11T01:23:27.769Z,5.60
2019-02-11T01:25:58.155Z,5.70
2019-02-11T01:28:28.480Z,5.60
2019-02-11T01:30:58.867Z,5.70
2019-02-11T01:33:29.266Z,5.60
2019-02-11T01:35:59.618Z,5.60
2019-02-11T01:38:30.085Z,5.70
2019-02-11T01:41:00.372Z,5.70
2019-02-11T01:43:36.132Z,5.60
2019-02-11T01:46:02.938Z,5.60
2019-02-11T01:48:33.260Z,5.70
2019-02-11T01:51:03.561Z,5.70
2019-02-11T01:53:34.013Z,5.70
2019-02-11T01:56:04.308Z,5.70
2019-02-11T01:58:34.559Z,5.70
2019-02-11T02:01:05.792Z,5.70
2019-02-11T02:03:36.124Z,5.70
2019-02-11T02:06:06.488Z,5.70
2019-02-11T02:08:36.758Z,5.60
2019-02-11T02:11:07.055Z,5.60
2019-02-11T02:13:44.686Z,5.60
2019-02-11T02:16:09.312Z,5.60
2019-02-11T02:18:39.616Z,5.70
2019-02-11T02:21:09.933Z,5.70
2019-02-11T02:23:40.303Z,5.70
2019-02-11T02:26:10.568Z,5.70
2019-02-11T02:28:40.873Z,5.60
2019-02-11T02:31:11.086Z,5.60
2019-02-11T02:33:42.512Z,5.60
2019-02-11T02:36:12.853Z,5.60
2019-02-11T02:38:44.754Z,5.60
2019-02-11T02:41:15.063Z,5.60
2019-02-11T02:43:55.237Z,5.70
2019-02-11T02:46:18.472Z,5.70
2019-02-11T02:48:49.556Z,5.70
2019-02-11T02:51:19.868Z,5.60
2019-02-11T02:53:51.190Z,5.60
2019-02-11T02:56:21.537Z,5.60
2019-02-11T02:58:52.024Z,5.60
2019-02-11T03:01:22.432Z,5.60
2019-02-11T03:03:54.024Z,5.50
2019-02-11T03:06:24.292Z,5.50
2019-02-11T03:08:54.696Z,5.50
2019-02-11T03:11:25.246Z,5.60
2019-02-11T03:14:03.810Z,5.60
2019-02-11T03:16:31.804Z,5.60
2019-02-11T03:19:02.250Z,5.60
2019-02-11T03:21:32.775Z,5.60
2019-02-11T03:24:03.137Z,5.70
2019-02-11T03:26:33.503Z,5.70
2019-02-11T03:29:03.814Z,5.70
2019-02-11T03:31:35.715Z,5.70
2019-02-11T03:34:06.115Z,5.70
2019-02-11T03:36:36.430Z,5.70
2019-02-11T03:39:07.552Z,5.70
2019-02-11T03:41:38.436Z,5.70
2019-02-11T03:44:14.931Z,5.70
2019-02-11T03:46:40.990Z,5.70
2019-02-11T03:49:11.356Z,5.70
2019-02-11T03:51:41.756Z,5.70
2019-02-11T03:54:12.174Z,5.70
2019-02-11T03:56:42.566Z,5.60
2019-02-11T03:59:12.896Z,5.60
2019-02-11T04:01:43.342Z,5.60
2019-02-11T04:04:14.188Z,5.50
2019-02-11T04:06:44.814Z,5.50
2019-02-11T04:09:15.146Z,5.40
2019-02-11T04:11:45.429Z,5.40
2019-02-11T04:14:24.739Z,5.40
2019-02-11T04:16:47.922Z,5.40
2019-02-11T04:19:18.437Z,5.40
2019-02-11T04:21:58.118Z,5.40
2019-02-11T04:24:28.456Z,5.40
2019-02-11T04:26:58.765Z,5.50
2019-02-11T04:29:29.106Z,5.40
2019-02-11T04:32:00.433Z,5.40
2019-02-11T04:34:30.752Z,5.40
2019-02-11T04:37:01.072Z,5.40
2019-02-11T04:39:31.500Z,5.40
2019-02-11T04:42:01.857Z,5.40
2019-02-11T04:44:34.001Z,5.30
2019-02-11T04:47:04.223Z,5.30
2019-02-11T04:49:35.875Z,5.30
2019-02-11T04:52:06.828Z,5.30
2019-02-11T04:54:37.189Z,5.30
2019-02-11T04:57:07.525Z,5.20
2019-02-11T04:59:38.013Z,5.20
2019-02-11T05:02:08.563Z,5.20
2019-02-11T05:04:39.988Z,5.10
2019-02-11T05:07:10.384Z,5.20
2019-02-11T05:09:40.724Z,5.10
2019-02-11T05:12:11.213Z,5.10
2019-02-11T05:14:44.064Z,5.10
2019-02-11T05:17:13.591Z,5.20
2019-02-11T05:19:43.896Z,5.20
2019-02-11T05:22:14.190Z,5.30
2019-02-11T05:24:44.607Z,5.30
2019-02-11T05:27:14.998Z,5.40
2019-02-11T05:29:46.402Z,5.40
2019-02-11T05:32:16.667Z,5.40
2019-02-11T05:34:47.606Z,5.50
2019-02-11T05:37:17.933Z,5.40
2019-02-11T05:39:48.206Z,5.40
2019-02-11T05:42:18.536Z,5.40
2019-02-11T05:44:54.068Z,5.40
2019-02-11T05:47:20.936Z,5.40
2019-02-11T05:49:51.279Z,5.40
2019-02-11T05:52:21.622Z,5.40
2019-02-11T05:54:51.969Z,5.30
2019-02-11T05:57:22.183Z,5.40
2019-02-11T05:59:54.011Z,5.40
2019-02-11T06:02:24.763Z,5.40
2019-02-11T06:04:56.227Z,5.50
2019-02-11T06:07:26.478Z,5.50
2019-02-11T06:09:56.759Z,5.60
2019-02-11T06:12:27.856Z,5.70
2019-02-11T06:15:03.930Z,5.80
2019-02-11T06:17:30.206Z,5.80
2019-02-11T06:20:00.505Z,5.80
2019-02-11T06:22:30.868Z,5.70
2019-02-11T06:25:01.118Z,5.70
2019-02-11T06:27:32.392Z,5.80
2019-02-11T06:30:02.684Z,5.80
2019-02-11T06:32:32.950Z,5.90
2019-02-11T06:35:04.776Z,5.90
2019-02-11T06:37:35.290Z,5.90
2019-02-11T06:40:06.849Z,5.90
2019-02-11T06:42:37.269Z,5.90
2019-02-11T06:45:13.131Z,6.00
2019-02-11T06:47:40.082Z,6.10
2019-02-11T06:50:11.406Z,6.10
2019-02-11T06:52:43.439Z,6.10
2019-02-11T06:55:13.505Z,6.10
2019-02-11T06:57:43.925Z,6.10
2019-02-11T07:00:14.383Z,6.10
2019-02-11T07:02:44.900Z,6.10
2019-02-11T07:05:15.222Z,6.10
2019-02-11T07:07:45.719Z,6.10
2019-02-11T07:10:16.043Z,6.10
2019-02-11T07:12:46.327Z,6.10
2019-02-11T07:15:22.259Z,6.10
2019-02-11T07:17:48.953Z,6.10
2019-02-11T07:20:19.280Z,6.00
2019-02-11T07:22:49.662Z,6.00
2019-02-11T07:25:19.941Z,6.00
2019-02-11T07:27:50.358Z,6.00
2019-02-11T07:30:20.928Z,6.00
2019-02-11T07:32:51.384Z,5.90
2019-02-11T07:35:21.777Z,6.00
2019-02-11T07:37:52.133Z,6.00
2019-02-11T07:40:22.519Z,6.00
2019-02-11T07:43:11.858Z,6.00
2019-02-11T07:45:49.981Z,6.00
2019-02-11T07:48:20.310Z,6.10
2019-02-11T07:50:50.711Z,6.10
2019-02-11T07:53:21.029Z,6.10
2019-02-11T07:55:51.306Z,6.10
2019-02-11T07:58:21.692Z,6.10
2019-02-11T08:00:52.052Z,6.10
2019-02-11T08:03:22.526Z,6.20
2019-02-11T08:05:55.726Z,6.10
2019-02-11T08:08:26.063Z,6.10
2019-02-11T08:10:56.313Z,6.10
2019-02-11T08:13:26.766Z,6.10
2019-02-11T08:15:57.123Z,6.00
2019-02-11T08:18:32.763Z,6.00
2019-02-11T08:21:03.056Z,5.90
2019-02-11T08:23:33.371Z,5.90
2019-02-11T08:26:03.725Z,6.00
2019-02-11T08:28:34.152Z,6.00
2019-02-11T08:31:04.646Z,6.00
2019-02-11T08:33:34.972Z,6.00
2019-02-11T08:36:05.344Z,6.10
2019-02-11T08:38:35.872Z,6.10
2019-02-11T08:41:06.752Z,6.10
2019-02-11T08:43:37.204Z,6.20
2019-02-11T08:46:07.680Z,6.30
2019-02-11T08:48:38.192Z,6.30
2019-02-11T08:51:08.652Z,6.20
2019-02-11T08:53:39.549Z,6.30
2019-02-11T08:56:10.165Z,6.40
2019-02-11T08:58:40.594Z,6.40
2019-02-11T09:01:10.947Z,6.50
2019-02-11T09:03:41.518Z,6.60
2019-02-11T09:06:11.995Z,6.60
2019-02-11T09:08:42.493Z,6.70
2019-02-11T09:11:13.321Z,6.80
2019-02-11T09:13:43.788Z,6.90
2019-02-11T09:16:15.719Z,7.00
2019-02-11T09:18:46.041Z,7.10
2019-02-11T09:21:16.266Z,6.90
2019-02-11T09:23:46.645Z,6.80
2019-02-11T09:26:16.926Z,6.70
2019-02-11T09:28:47.369Z,6.80
2019-02-11T09:31:17.727Z,6.90
2019-02-11T09:33:48.151Z,7.00
2019-02-11T09:36:21.336Z,7.10
2019-02-11T09:38:51.783Z,7.10
2019-02-11T09:41:22.002Z,7.10
2019-02-11T09:43:52.300Z,7.10
2019-02-11T09:46:22.675Z,7.10
2019-02-11T09:48:53.270Z,7.10
2019-02-11T09:51:36.423Z,7.10
2019-02-11T09:54:00.926Z,7.10
2019-02-11T09:56:31.298Z,7.10
2019-02-11T09:59:01.625Z,7.20
2019-02-11T10:01:32.017Z,7.20
2019-02-11T10:04:02.442Z,7.20
2019-02-11T10:06:34.387Z,7.30
2019-02-11T10:09:06.407Z,7.30
2019-02-11T10:11:37.714Z,7.30
2019-02-11T10:14:08.149Z,7.40
2019-02-11T10:16:38.631Z,7.30
2019-02-11T10:19:09.036Z,7.30
2019-02-11T10:21:39.428Z,7.40
2019-02-11T10:24:09.803Z,7.40
2019-02-11T10:26:40.139Z,7.50
2019-02-11T10:29:10.594Z,7.40
2019-02-11T10:31:40.891Z,7.40
2019-02-11T10:34:11.127Z,7.40
2019-02-11T10:36:41.540Z,7.50
2019-02-11T10:39:12.004Z,7.50
2019-02-11T10:41:42.621Z,7.60
2019-02-11T10:44:13.059Z,7.60
2019-02-11T10:46:43.410Z,7.60
2019-02-11T10:49:13.855Z,7.60
2019-02-11T10:51:44.148Z,7.60
2019-02-11T10:54:14.419Z,7.60
2019-02-11T10:56:44.948Z,7.60
2019-02-11T10:59:15.199Z,7.50
2019-02-11T11:01:45.477Z,7.70
2019-02-11T11:04:15.823Z,7.60
2019-02-11T11:06:46.173Z,7.70
2019-02-11T11:09:16.520Z,7.90
2019-02-11T11:11:46.848Z,8.10
2019-02-11T11:14:17.432Z,7.90
2019-02-11T11:16:49.408Z,7.70
2019-02-11T11:19:19.815Z,7.60
2019-02-11T11:21:50.160Z,7.60
2019-02-11T11:24:20.414Z,7.80
2019-02-11T11:26:50.832Z,8.00
2019-02-11T11:29:21.097Z,7.90
2019-02-11T11:31:51.500Z,7.80
2019-02-11T11:34:21.773Z,7.90
2019-02-11T11:36:53.738Z,7.70
2019-02-11T11:39:27.119Z,7.50
2019-02-11T11:41:57.495Z,7.50
2019-02-11T11:44:27.855Z,7.50
2019-02-11T11:46:58.151Z,7.40
2019-02-11T11:49:28.437Z,7.30
2019-02-11T11:51:58.938Z,7.50
2019-02-11T11:54:29.285Z,7.80
2019-02-11T11:56:59.766Z,8.00
2019-02-11T11:59:31.180Z,8.00
2019-02-11T12:02:01.634Z,7.70
2019-02-11T12:04:34.072Z,7.90
2019-02-11T12:07:04.418Z,8.00
2019-02-11T12:09:34.881Z,8.00
2019-02-11T12:12:05.416Z,8.00
2019-02-11T12:14:36.727Z,7.90
2019-02-11T12:17:07.051Z,7.90
2019-02-11T12:19:37.801Z,7.90
2019-02-11T12:22:12.879Z,8.10
2019-02-11T12:24:41.466Z,8.10
2019-02-11T12:27:11.813Z,8.10
2019-02-11T12:29:42.188Z,8.40
2019-02-11T12:32:12.591Z,8.20
2019-02-11T12:34:42.988Z,8.20
2019-02-11T12:37:13.319Z,8.40
2019-02-11T12:39:43.770Z,8.50
2019-02-11T12:42:14.719Z,8.50
2019-02-11T12:44:45.063Z,8.50
2019-02-11T12:47:15.552Z,8.40
2019-02-11T12:49:45.973Z,8.50
2019-02-11T12:52:16.375Z,8.40
2019-02-11T12:54:46.779Z,8.20
2019-02-11T12:57:17.239Z,8.10
2019-02-11T12:59:47.573Z,7.90
2019-02-11T13:02:17.922Z,7.80
2019-02-11T13:04:48.374Z,8.00
2019-02-11T13:07:18.882Z,8.30
2019-02-11T13:09:49.207Z,8.50
2019-02-11T13:12:19.754Z,8.40
2019-02-11T13:14:51.220Z,8.20
2019-02-11T13:17:33.445Z,8.20
2019-02-11T13:20:07.383Z,8.30
2019-02-11T13:22:25.642Z,8.40
2019-02-11T13:24:56.028Z,8.30
2019-02-11T13:27:26.402Z,8.40
2019-02-11T13:29:56.734Z,8.30
2019-02-11T13:32:27.125Z,8.50
2019-02-11T13:34:57.546Z,8.70
2019-02-11T13:37:28.096Z,8.70
2019-02-11T13:39:58.449Z,8.80
2019-02-11T13:42:28.965Z,8.70
2019-02-11T13:44:59.334Z,8.90
2019-02-11T13:47:29.704Z,8.90
2019-02-11T13:50:00.353Z,8.70
2019-02-11T13:52:31.932Z,8.60
2019-02-11T13:55:02.353Z,8.50
2019-02-11T13:57:33.015Z,8.40
2019-02-11T14:00:04.045Z,8.60
2019-02-11T14:02:38.514Z,8.70
2019-02-11T14:05:08.907Z,8.50
2019-02-11T14:07:40.191Z,8.80
2019-02-11T14:10:10.781Z,8.80
2019-02-11T14:12:41.218Z,8.70
2019-02-11T14:15:11.604Z,8.80
2019-02-11T14:17:42.045Z,8.80
2019-02-11T14:20:21.016Z,8.80
2019-02-11T14:22:51.382Z,8.90
2019-02-11T14:25:40.262Z,8.80
2019-02-11T14:27:55.434Z,8.50
2019-02-11T14:30:25.791Z,8.50
2019-02-11T14:32:56.918Z,8.30
2019-02-11T14:35:27.518Z,8.40
2019-02-11T14:38:01.791Z,8.20
2019-02-11T14:40:30.174Z,8.50
2019-02-11T14:43:00.655Z,8.60
2019-02-11T14:45:31.338Z,8.40
2019-02-11T14:48:01.783Z,8.50
2019-02-11T14:50:32.176Z,8.40
2019-02-11T14:53:02.561Z,8.20
2019-02-11T14:55:35.347Z,8.10
2019-02-11T14:58:09.457Z,7.90
2019-02-11T15:00:39.825Z,8.00
2019-02-11T15:03:10.223Z,8.10
2019-02-11T15:05:40.514Z,8.20
2019-02-11T15:08:10.806Z,8.10
2019-02-11T15:10:41.168Z,8.10
2019-02-11T15:13:11.579Z,8.10
2019-02-11T15:15:42.570Z,8.20
2019-02-11T15:18:12.979Z,8.20
2019-02-11T15:20:43.790Z,8.10
2019-02-11T15:23:14.123Z,8.10
2019-02-11T15:25:44.541Z,8.20
2019-02-11T15:28:17.136Z,8.20
2019-02-11T15:30:47.432Z,8.00
2019-02-11T15:33:18.156Z,7.80
2019-02-11T15:35:48.617Z,7.70
2019-02-11T15:38:19.282Z,7.70
2019-02-11T15:40:50.422Z,7.60
2019-02-11T15:43:20.900Z,7.50
2019-02-11T15:45:51.398Z,7.50
2019-02-11T15:48:21.718Z,7.40
2019-02-11T15:50:53.638Z,7.30
2019-02-11T15:53:24.250Z,7.30
2019-02-11T15:55:55.046Z,7.20
2019-02-11T15:58:25.637Z,7.10
2019-02-11T16:00:56.055Z,7.10
2019-02-11T16:03:26.443Z,6.90
2019-02-11T16:05:56.996Z,6.80
2019-02-11T16:08:27.517Z,6.80
2019-02-11T16:11:01.488Z,6.70
2019-02-11T16:13:30.412Z,6.70
2019-02-11T16:16:00.833Z,6.60
2019-02-11T16:18:31.137Z,6.50
2019-02-11T16:21:01.463Z,6.40
2019-02-11T16:23:31.909Z,6.30
2019-02-11T16:26:03.283Z,6.30
2019-02-11T16:28:33.727Z,6.20
2019-02-11T16:31:06.089Z,6.00
2019-02-11T16:33:36.492Z,6.00
2019-02-11T16:36:06.939Z,5.90
2019-02-11T16:38:37.323Z,5.80
2019-02-11T16:41:10.040Z,5.70
2019-02-11T16:43:40.467Z,5.70
2019-02-11T16:46:12.548Z,5.70
2019-02-11T16:48:42.940Z,5.70
2019-02-11T16:51:13.262Z,5.60
2019-02-11T16:53:43.655Z,5.60
2019-02-11T16:56:14.023Z,5.50
2019-02-11T16:58:44.433Z,5.30
2019-02-11T17:01:14.884Z,5.30
2019-02-11T17:03:45.282Z,5.20
2019-02-11T17:06:15.800Z,5.00
2019-02-11T17:08:48.893Z,4.90
2019-02-11T17:11:19.406Z,4.70
2019-02-11T17:13:49.757Z,4.60
2019-02-11T17:16:20.258Z,4.60
2019-02-11T17:18:50.586Z,4.50
2019-02-11T17:21:21.042Z,4.50
2019-02-11T17:23:51.481Z,4.50
2019-02-11T17:26:21.763Z,4.50
2019-02-11T17:28:52.059Z,4.40
2019-02-11T17:31:22.383Z,4.40
2019-02-11T17:33:52.811Z,4.40
2019-02-11T17:36:23.256Z,4.40
2019-02-11T17:39:00.317Z,4.30
2019-02-11T17:41:43.443Z,4.30
2019-02-11T17:44:13.873Z,4.20
2019-02-11T17:46:44.423Z,4.10
2019-02-11T17:49:17.794Z,4.10
2019-02-11T17:51:50.121Z,4.10
2019-02-11T17:54:26.411Z,4.10
2019-02-11T17:56:56.757Z,4.10
2019-02-11T17:59:27.376Z,4.00
2019-02-11T18:01:57.718Z,4.00
2019-02-11T18:04:28.012Z,4.00
2019-02-11T18:06:58.343Z,4.00
2019-02-11T18:09:35.779Z,3.90
2019-02-11T18:12:12.315Z,4.00
2019-02-11T18:14:42.580Z,4.00
2019-02-11T18:17:13.098Z,4.10
2019-02-11T18:19:43.638Z,4.10
2019-02-11T18:22:14.091Z,4.10
2019-02-11T18:24:44.395Z,4.10
2019-02-11T18:27:14.760Z,4.00
2019-02-11T18:29:45.226Z,3.90
2019-02-11T18:32:15.952Z,3.80
2019-02-11T18:34:47.291Z,3.80
2019-02-11T18:37:19.030Z,3.70
2019-02-11T18:39:49.428Z,3.70
2019-02-11T18:42:19.996Z,3.60
2019-02-11T18:44:52.432Z,3.50
2019-02-11T18:47:22.995Z,3.50
2019-02-11T18:49:56.903Z,3.50
2019-02-11T18:52:29.008Z,3.60
2019-02-11T18:54:59.448Z,3.70
2019-02-11T18:57:29.826Z,3.80
2019-02-11T19:00:02.315Z,3.80
2019-02-11T19:02:37.383Z,3.80
2019-02-11T19:05:10.459Z,3.80
2019-02-11T19:07:40.827Z,4.00
2019-02-11T19:10:14.742Z,4.00
2019-02-11T19:12:49.746Z,4.00
2019-02-11T19:15:20.207Z,4.00
2019-02-11T19:17:57.211Z,3.90
2019-02-11T19:20:31.672Z,3.90
2019-02-11T19:23:05.026Z,3.70
2019-02-11T19:25:43.522Z,3.70
2019-02-11T19:28:14.932Z,3.70
2019-02-11T19:30:45.248Z,3.80
2019-02-11T19:33:16.799Z,3.90
2019-02-11T19:35:54.555Z,3.90
2019-02-11T19:38:25.040Z,3.90
2019-02-11T19:40:55.429Z,3.90
2019-02-11T19:43:27.320Z,3.80
2019-02-11T19:45:57.712Z,3.80
2019-02-11T19:48:29.882Z,3.70
2019-02-11T19:51:00.240Z,3.60
2019-02-11T19:53:30.670Z,3.70
2019-02-11T19:56:01.082Z,3.70
2019-02-11T19:58:31.476Z,3.70
2019-02-11T20:01:01.937Z,3.70
2019-02-11T20:03:32.514Z,3.70
2019-02-11T20:06:03.091Z,3.70
2019-02-11T20:08:33.538Z,3.70
2019-02-11T20:11:04.249Z,3.70
2019-02-11T20:13:34.640Z,3.70
2019-02-11T20:16:04.895Z,3.60
2019-02-11T20:18:35.379Z,3.50
2019-02-11T20:21:06.741Z,3.50
2019-02-11T20:23:37.183Z,3.50
2019-02-11T20:26:13.368Z,3.60
2019-02-11T20:28:43.736Z,3.60
2019-02-11T20:31:14.328Z,3.60
2019-02-11T20:33:50.469Z,3.60
2019-02-11T20:36:22.602Z,3.70
2019-02-11T20:39:03.933Z,3.90
2019-02-11T20:41:46.157Z,3.80
2019-02-11T20:44:21.787Z,3.90
2019-02-11T20:47:18.961Z,4.00
2019-02-11T20:49:49.810Z,4.00
2019-02-11T20:52:20.375Z,4.00
2019-02-11T20:54:53.912Z,3.90
2019-02-11T20:57:25.592Z,3.80
2019-02-11T20:59:56.191Z,3.80
2019-02-11T21:02:26.537Z,3.70
2019-02-11T21:04:58.510Z,3.70
2019-02-11T21:07:28.821Z,3.70
2019-02-11T21:09:59.198Z,3.60
2019-02-11T21:12:32.123Z,3.50
2019-02-11T21:15:02.619Z,3.50
2019-02-11T21:17:33.228Z,3.40
2019-02-11T21:20:17.568Z,3.40
2019-02-11T21:22:46.344Z,3.40
2019-02-11T21:25:17.041Z,3.40
2019-02-11T21:27:47.419Z,3.40
2019-02-11T21:30:17.765Z,3.40
2019-02-11T21:32:48.113Z,3.40
2019-02-11T21:35:18.549Z,3.40
2019-02-11T21:37:48.866Z,3.30
2019-02-11T21:40:19.423Z,3.30
2019-02-11T21:42:49.855Z,3.40
2019-02-11T21:45:20.333Z,3.40
2019-02-11T21:47:50.699Z,3.50
2019-02-11T21:50:26.676Z,3.40
2019-02-11T21:52:53.152Z,3.30
2019-02-11T21:55:23.778Z,3.30
2019-02-11T21:57:54.180Z,3.20
2019-02-11T22:00:24.536Z,3.20
2019-02-11T22:02:54.967Z,3.20
2019-02-11T22:05:25.379Z,3.20
2019-02-11T22:07:58.518Z,3.20
2019-02-11T22:10:28.856Z,3.10
2019-02-11T22:12:59.142Z,3.20
2019-02-11T22:15:29.476Z,3.20
2019-02-11T22:17:59.832Z,3.20
2019-02-11T22:20:39.108Z,3.10
2019-02-11T22:23:11.638Z,3.00
2019-02-11T22:25:42.130Z,3.00
2019-02-11T22:28:12.492Z,3.00
2019-02-11T22:30:45.003Z,2.90
2019-02-11T22:33:15.333Z,2.90
2019-02-11T22:35:45.650Z,2.90
2019-02-11T22:38:15.930Z,2.90
2019-02-11T22:40:46.288Z,3.00
2019-02-11T22:43:16.525Z,3.10
2019-02-11T22:45:46.832Z,3.10
2019-02-11T22:48:17.094Z,3.00
2019-02-11T22:50:47.573Z,3.10
2019-02-11T22:53:17.796Z,3.10
2019-02-11T22:55:49.709Z,3.10
2019-02-11T22:58:19.995Z,3.20
2019-02-11T23:01:02.752Z,3.20
2019-02-11T23:03:35.277Z,3.10
2019-02-11T23:06:07.327Z,3.10
2019-02-11T23:08:37.569Z,3.10
2019-02-11T23:11:07.856Z,3.10
2019-02-11T23:13:38.231Z,3.20
2019-02-11T23:16:08.549Z,3.30
2019-02-11T23:18:38.816Z,3.30
2019-02-11T23:21:09.319Z,3.30
2019-02-11T23:23:39.769Z,3.30
2019-02-11T23:26:11.701Z,3.40
2019-02-11T23:28:44.708Z,3.40
2019-02-11T23:31:15.051Z,3.50
2019-02-11T23:33:45.346Z,3.50
2019-02-11T23:36:15.674Z,3.40
2019-02-11T23:38:45.944Z,3.30
2019-02-11T23:41:16.227Z,3.20
2019-02-11T23:43:46.496Z,3.20
2019-02-11T23:46:16.785Z,3.30
2019-02-11T23:48:48.061Z,3.30
2019-02-11T23:51:18.386Z,3.30
2019-02-11T23:53:48.716Z,3.30
2019-02-11T23:56:20.805Z,3.30
2019-02-11T23:58:51.061Z,3.30
